Caldicot, United Kingdom
Current Conditions -  °F | °C
As of 1:20 AM on Tuesday 23 Dec 2014 (Local Time) from EGGD Reporting Station
Overcast Overcast  
Wind Chill: 50°   Ceiling: 2400
Heat Index: 50°   Visibility: 6mi
Dew Point: 45°   Wind: 22mph
Humidity: 82%   Direction: 240°WSW
Pressure: 30.09"   Gusts: 33mph
Location:  51.59°N, 2.76°W
Report Text: EGGD 230120Z 24019G29KT 9999 FEW018 OVC024 10/07 Q1019
Loading
Personal Weather Stations






























Interactive Weather Map New forecast layout! Learn more

10-Day Weather Forecast

Advertisements
Track Severe Weather on mobile